sensor_id;sensor_type;location;lat;lon;timestamp;P1;durP1;ratioP1;P2;durP2;ratioP2
75156;SDS011;63736;50.076;8.198;2023-04-03T00:00:39;445.90;;;119.77;;
75156;SDS011;63736;50.076;8.198;2023-04-03T00:03:05;446.10;;;120.22;;
75156;SDS011;63736;50.076;8.198;2023-04-03T00:05:30;445.30;;;119.87;;
75156;SDS011;63736;50.076;8.198;2023-04-03T00:07:56;444.50;;;119.43;;
75156;SDS011;63736;50.076;8.198;2023-04-03T00:10:21;446.93;;;120.07;;
75156;SDS011;63736;50.076;8.198;2023-04-03T00:12:47;443.00;;;119.03;;
75156;SDS011;63736;50.076;8.198;2023-04-03T00:15:12;443.40;;;118.97;;
75156;SDS011;63736;50.076;8.198;2023-04-03T00:17:37;445.27;;;119.50;;
75156;SDS011;63736;50.076;8.198;2023-04-03T00:20:03;446.40;;;120.20;;
75156;SDS011;63736;50.076;8.198;2023-04-03T00:22:29;446.23;;;120.03;;
75156;SDS011;63736;50.076;8.198;2023-04-03T00:24:55;444.70;;;119.27;;
75156;SDS011;63736;50.076;8.198;2023-04-03T00:27:20;450.63;;;119.97;;
75156;SDS011;63736;50.076;8.198;2023-04-03T00:29:46;449.33;;;119.88;;
75156;SDS011;63736;50.076;8.198;2023-04-03T00:32:11;449.50;;;120.40;;
75156;SDS011;63736;50.076;8.198;2023-04-03T00:34:36;448.47;;;119.77;;
75156;SDS011;63736;50.076;8.198;2023-04-03T00:37:01;451.07;;;120.27;;
75156;SDS011;63736;50.076;8.198;2023-04-03T00:39:27;451.27;;;120.07;;
75156;SDS011;63736;50.076;8.198;2023-04-03T00:41:52;451.17;;;120.30;;
75156;SDS011;63736;50.076;8.198;2023-04-03T00:46:58;450.20;;;120.95;;
75156;SDS011;63736;50.076;8.198;2023-04-03T00:49:24;449.25;;;120.50;;
75156;SDS011;63736;50.076;8.198;2023-04-03T00:51:49;447.10;;;119.53;;
75156;SDS011;63736;50.076;8.198;2023-04-03T00:54:15;445.17;;;118.28;;
75156;SDS011;63736;50.076;8.198;2023-04-03T00:56:41;447.70;;;119.70;;
75156;SDS011;63736;50.076;8.198;2023-04-03T00:59:13;443.77;;;118.60;;
75156;SDS011;63736;50.076;8.198;2023-04-03T01:01:41;444.35;;;118.93;;
75156;SDS011;63736;50.076;8.198;2023-04-03T01:07:10;448.48;;;120.10;;
75156;SDS011;63736;50.076;8.198;2023-04-03T01:09:47;441.87;;;118.17;;
75156;SDS011;63736;50.076;8.198;2023-04-03T01:14:45;445.00;;;118.72;;
75156;SDS011;63736;50.076;8.198;2023-04-03T01:20:44;453.55;;;120.22;;
75156;SDS011;63736;50.076;8.198;2023-04-03T01:23:21;452.17;;;120.27;;
75156;SDS011;63736;50.076;8.198;2023-04-03T01:25:50;457.38;;;121.35;;
75156;SDS011;63736;50.076;8.198;2023-04-03T01:28:35;458.13;;;121.70;;
75156;SDS011;63736;50.076;8.198;2023-04-03T01:31:04;455.27;;;120.82;;
75156;SDS011;63736;50.076;8.198;2023-04-03T01:33:37;454.40;;;120.18;;
75156;SDS011;63736;50.076;8.198;2023-04-03T01:36:03;456.03;;;120.30;;
75156;SDS011;63736;50.076;8.198;2023-04-03T01:38:29;458.52;;;120.95;;
75156;SDS011;63736;50.076;8.198;2023-04-03T01:40:55;459.20;;;121.13;;
75156;SDS011;63736;50.076;8.198;2023-04-03T01:43:20;455.83;;;120.37;;
75156;SDS011;63736;50.076;8.198;2023-04-03T01:45:45;457.03;;;120.60;;
75156;SDS011;63736;50.076;8.198;2023-04-03T01:48:11;454.42;;;120.20;;
75156;SDS011;63736;50.076;8.198;2023-04-03T01:50:37;454.97;;;120.47;;
75156;SDS011;63736;50.076;8.198;2023-04-03T01:53:02;455.50;;;120.67;;
75156;SDS011;63736;50.076;8.198;2023-04-03T01:55:27;453.60;;;119.40;;
75156;SDS011;63736;50.076;8.198;2023-04-03T01:57:53;453.67;;;119.97;;
75156;SDS011;63736;50.076;8.198;2023-04-03T02:00:18;455.80;;;120.30;;
75156;SDS011;63736;50.076;8.198;2023-04-03T02:02:43;457.13;;;121.27;;
75156;SDS011;63736;50.076;8.198;2023-04-03T02:05:09;455.97;;;120.97;;
75156;SDS011;63736;50.076;8.198;2023-04-03T02:07:34;455.83;;;120.80;;
75156;SDS011;63736;50.076;8.198;2023-04-03T02:10:00;454.05;;;120.10;;
75156;SDS011;63736;50.076;8.198;2023-04-03T02:12:25;455.73;;;121.03;;
75156;SDS011;63736;50.076;8.198;2023-04-03T02:14:50;454.23;;;120.40;;
75156;SDS011;63736;50.076;8.198;2023-04-03T02:17:15;455.97;;;120.97;;
75156;SDS011;63736;50.076;8.198;2023-04-03T02:19:41;454.00;;;120.60;;
75156;SDS011;63736;50.076;8.198;2023-04-03T02:22:06;456.23;;;121.03;;
75156;SDS011;63736;50.076;8.198;2023-04-03T02:24:32;457.10;;;121.97;;
75156;SDS011;63736;50.076;8.198;2023-04-03T02:26:57;457.30;;;121.63;;
75156;SDS011;63736;50.076;8.198;2023-04-03T02:29:22;454.60;;;121.20;;
75156;SDS011;63736;50.076;8.198;2023-04-03T02:31:48;454.20;;;120.60;;
75156;SDS011;63736;50.076;8.198;2023-04-03T02:34:13;452.23;;;120.05;;
75156;SDS011;63736;50.076;8.198;2023-04-03T02:36:39;455.07;;;121.47;;
75156;SDS011;63736;50.076;8.198;2023-04-03T02:39:04;452.90;;;120.57;;
75156;SDS011;63736;50.076;8.198;2023-04-03T02:41:30;456.17;;;121.70;;
75156;SDS011;63736;50.076;8.198;2023-04-03T02:44:00;452.03;;;120.33;;
75156;SDS011;63736;50.076;8.198;2023-04-03T02:46:29;452.27;;;120.47;;
75156;SDS011;63736;50.076;8.198;2023-04-03T02:48:54;452.97;;;120.80;;
75156;SDS011;63736;50.076;8.198;2023-04-03T02:51:19;456.45;;;121.70;;
75156;SDS011;63736;50.076;8.198;2023-04-03T02:53:45;452.80;;;121.27;;
75156;SDS011;63736;50.076;8.198;2023-04-03T02:56:10;455.33;;;122.20;;
75156;SDS011;63736;50.076;8.198;2023-04-03T02:58:35;449.70;;;120.03;;
75156;SDS011;63736;50.076;8.198;2023-04-03T03:01:01;452.43;;;120.60;;
75156;SDS011;63736;50.076;8.198;2023-04-03T03:03:26;451.43;;;120.70;;
75156;SDS011;63736;50.076;8.198;2023-04-03T03:06:05;451.63;;;120.30;;
75156;SDS011;63736;50.076;8.198;2023-04-03T03:08:37;453.58;;;121.72;;
75156;SDS011;63736;50.076;8.198;2023-04-03T03:11:03;452.47;;;120.90;;
75156;SDS011;63736;50.076;8.198;2023-04-03T03:13:29;453.63;;;120.88;;
75156;SDS011;63736;50.076;8.198;2023-04-03T03:15:54;451.87;;;120.50;;
75156;SDS011;63736;50.076;8.198;2023-04-03T03:18:20;455.20;;;121.87;;
75156;SDS011;63736;50.076;8.198;2023-04-03T03:20:45;453.60;;;122.07;;
75156;SDS011;63736;50.076;8.198;2023-04-03T03:23:11;451.73;;;121.60;;
75156;SDS011;63736;50.076;8.198;2023-04-03T03:25:40;451.50;;;120.87;;
75156;SDS011;63736;50.076;8.198;2023-04-03T03:28:05;453.73;;;121.60;;
75156;SDS011;63736;50.076;8.198;2023-04-03T03:30:31;450.88;;;120.65;;
75156;SDS011;63736;50.076;8.198;2023-04-03T03:32:57;450.27;;;120.37;;
75156;SDS011;63736;50.076;8.198;2023-04-03T03:35:22;451.47;;;120.97;;
75156;SDS011;63736;50.076;8.198;2023-04-03T03:37:48;450.63;;;120.43;;
75156;SDS011;63736;50.076;8.198;2023-04-03T03:40:13;449.47;;;120.13;;
75156;SDS011;63736;50.076;8.198;2023-04-03T03:42:38;450.67;;;120.80;;
75156;SDS011;63736;50.076;8.198;2023-04-03T03:45:04;454.50;;;121.13;;
75156;SDS011;63736;50.076;8.198;2023-04-03T03:47:30;453.13;;;121.40;;
75156;SDS011;63736;50.076;8.198;2023-04-03T03:49:56;453.55;;;122.05;;
75156;SDS011;63736;50.076;8.198;2023-04-03T03:52:21;452.20;;;121.10;;
75156;SDS011;63736;50.076;8.198;2023-04-03T03:54:46;457.73;;;122.30;;
75156;SDS011;63736;50.076;8.198;2023-04-03T03:57:12;460.40;;;122.87;;
75156;SDS011;63736;50.076;8.198;2023-04-03T03:59:37;465.13;;;123.67;;
75156;SDS011;63736;50.076;8.198;2023-04-03T04:02:02;467.53;;;123.97;;
75156;SDS011;63736;50.076;8.198;2023-04-03T04:04:28;472.03;;;124.53;;
75156;SDS011;63736;50.076;8.198;2023-04-03T04:06:53;504.13;;;134.20;;
75156;SDS011;63736;50.076;8.198;2023-04-03T04:09:18;503.23;;;134.73;;
75156;SDS011;63736;50.076;8.198;2023-04-03T04:11:44;495.43;;;131.30;;
75156;SDS011;63736;50.076;8.198;2023-04-03T04:14:10;492.08;;;131.52;;
75156;SDS011;63736;50.076;8.198;2023-04-03T04:16:37;487.27;;;129.37;;
75156;SDS011;63736;50.076;8.198;2023-04-03T04:19:02;488.17;;;129.70;;
75156;SDS011;63736;50.076;8.198;2023-04-03T04:21:27;486.20;;;128.80;;
75156;SDS011;63736;50.076;8.198;2023-04-03T04:23:53;488.23;;;129.50;;
75156;SDS011;63736;50.076;8.198;2023-04-03T04:26:18;492.83;;;131.77;;
75156;SDS011;63736;50.076;8.198;2023-04-03T04:28:43;485.63;;;129.67;;
75156;SDS011;63736;50.076;8.198;2023-04-03T04:31:08;470.53;;;125.47;;
75156;SDS011;63736;50.076;8.198;2023-04-03T04:33:34;449.67;;;120.93;;
75156;SDS011;63736;50.076;8.198;2023-04-03T04:35:59;445.23;;;121.37;;
75156;SDS011;63736;50.076;8.198;2023-04-03T04:38:24;436.00;;;118.60;;
75156;SDS011;63736;50.076;8.198;2023-04-03T04:40:50;440.73;;;119.93;;
75156;SDS011;63736;50.076;8.198;2023-04-03T04:43:16;451.93;;;121.73;;
75156;SDS011;63736;50.076;8.198;2023-04-03T04:45:41;460.00;;;123.47;;
75156;SDS011;63736;50.076;8.198;2023-04-03T04:48:07;463.90;;;123.77;;
75156;SDS011;63736;50.076;8.198;2023-04-03T04:50:32;473.60;;;125.93;;
75156;SDS011;63736;50.076;8.198;2023-04-03T04:52:57;477.03;;;127.93;;
75156;SDS011;63736;50.076;8.198;2023-04-03T04:55:23;459.27;;;123.73;;
75156;SDS011;63736;50.076;8.198;2023-04-03T04:57:48;442.57;;;120.60;;
75156;SDS011;63736;50.076;8.198;2023-04-03T05:00:13;456.57;;;123.70;;
75156;SDS011;63736;50.076;8.198;2023-04-03T05:02:40;446.10;;;121.40;;
75156;SDS011;63736;50.076;8.198;2023-04-03T05:05:05;445.83;;;121.67;;
75156;SDS011;63736;50.076;8.198;2023-04-03T05:07:31;465.77;;;125.87;;
75156;SDS011;63736;50.076;8.198;2023-04-03T05:09:56;496.43;;;135.50;;
75156;SDS011;63736;50.076;8.198;2023-04-03T05:12:21;477.47;;;129.83;;
75156;SDS011;63736;50.076;8.198;2023-04-03T05:14:47;469.10;;;126.30;;
75156;SDS011;63736;50.076;8.198;2023-04-03T05:17:12;463.27;;;125.57;;
75156;SDS011;63736;50.076;8.198;2023-04-03T05:19:37;466.13;;;126.43;;
75156;SDS011;63736;50.076;8.198;2023-04-03T05:22:02;465.23;;;126.30;;
75156;SDS011;63736;50.076;8.198;2023-04-03T05:24:28;464.53;;;126.80;;
75156;SDS011;63736;50.076;8.198;2023-04-03T05:26:53;461.47;;;126.43;;
75156;SDS011;63736;50.076;8.198;2023-04-03T05:29:18;459.73;;;124.73;;
75156;SDS011;63736;50.076;8.198;2023-04-03T05:31:44;457.85;;;124.95;;
75156;SDS011;63736;50.076;8.198;2023-04-03T05:34:09;455.63;;;124.50;;
75156;SDS011;63736;50.076;8.198;2023-04-03T05:36:35;455.47;;;124.67;;
75156;SDS011;63736;50.076;8.198;2023-04-03T05:39:00;456.67;;;125.07;;
75156;SDS011;63736;50.076;8.198;2023-04-03T05:41:25;455.67;;;125.17;;
75156;SDS011;63736;50.076;8.198;2023-04-03T05:43:51;457.27;;;124.70;;
75156;SDS011;63736;50.076;8.198;2023-04-03T05:46:17;450.10;;;122.97;;
75156;SDS011;63736;50.076;8.198;2023-04-03T05:48:44;454.00;;;124.10;;
75156;SDS011;63736;50.076;8.198;2023-04-03T05:51:14;454.27;;;124.10;;
75156;SDS011;63736;50.076;8.198;2023-04-03T05:53:41;476.38;;;128.52;;
75156;SDS011;63736;50.076;8.198;2023-04-03T05:56:08;495.73;;;134.93;;
75156;SDS011;63736;50.076;8.198;2023-04-03T05:58:33;494.93;;;133.70;;
75156;SDS011;63736;50.076;8.198;2023-04-03T06:00:58;486.37;;;130.87;;
75156;SDS011;63736;50.076;8.198;2023-04-03T06:03:24;487.63;;;131.83;;
75156;SDS011;63736;50.076;8.198;2023-04-03T06:05:50;483.10;;;129.73;;
75156;SDS011;63736;50.076;8.198;2023-04-03T06:08:15;498.00;;;132.17;;
75156;SDS011;63736;50.076;8.198;2023-04-03T06:10:40;505.20;;;134.00;;
75156;SDS011;63736;50.076;8.198;2023-04-03T06:13:05;497.37;;;132.03;;
75156;SDS011;63736;50.076;8.198;2023-04-03T06:15:31;527.27;;;139.67;;
75156;SDS011;63736;50.076;8.198;2023-04-03T06:17:56;540.95;;;144.20;;
75156;SDS011;63736;50.076;8.198;2023-04-03T06:20:22;522.67;;;138.17;;
75156;SDS011;63736;50.076;8.198;2023-04-03T06:22:47;522.47;;;138.60;;
75156;SDS011;63736;50.076;8.198;2023-04-03T06:25:13;510.87;;;135.20;;
75156;SDS011;63736;50.076;8.198;2023-04-03T06:27:38;535.40;;;141.57;;
75156;SDS011;63736;50.076;8.198;2023-04-03T06:30:04;501.17;;;131.50;;
75156;SDS011;63736;50.076;8.198;2023-04-03T06:32:31;480.13;;;125.68;;
75156;SDS011;63736;50.076;8.198;2023-04-03T06:34:56;470.23;;;123.27;;
75156;SDS011;63736;50.076;8.198;2023-04-03T06:37:23;474.05;;;123.90;;
75156;SDS011;63736;50.076;8.198;2023-04-03T06:39:51;542.63;;;141.95;;
75156;SDS011;63736;50.076;8.198;2023-04-03T06:42:16;520.33;;;134.90;;
75156;SDS011;63736;50.076;8.198;2023-04-03T06:44:41;446.17;;;116.43;;
75156;SDS011;63736;50.076;8.198;2023-04-03T06:47:09;576.50;;;148.57;;
75156;SDS011;63736;50.076;8.198;2023-04-03T06:49:36;686.60;;;178.02;;
75156;SDS011;63736;50.076;8.198;2023-04-03T06:52:02;706.27;;;182.20;;
75156;SDS011;63736;50.076;8.198;2023-04-03T06:54:27;647.03;;;159.75;;
75156;SDS011;63736;50.076;8.198;2023-04-03T06:56:53;643.03;;;158.60;;
75156;SDS011;63736;50.076;8.198;2023-04-03T06:59:18;656.93;;;160.83;;
75156;SDS011;63736;50.076;8.198;2023-04-03T07:01:44;717.47;;;178.05;;
75156;SDS011;63736;50.076;8.198;2023-04-03T07:04:09;740.13;;;182.43;;
75156;SDS011;63736;50.076;8.198;2023-04-03T07:06:35;810.67;;;199.73;;
75156;SDS011;63736;50.076;8.198;2023-04-03T07:09:00;877.80;;;215.68;;
75156;SDS011;63736;50.076;8.198;2023-04-03T07:11:26;753.57;;;184.27;;
75156;SDS011;63736;50.076;8.198;2023-04-03T07:13:52;751.75;;;184.40;;
75156;SDS011;63736;50.076;8.198;2023-04-03T07:16:18;761.28;;;187.18;;
75156;SDS011;63736;50.076;8.198;2023-04-03T07:18:43;738.10;;;177.90;;
75156;SDS011;63736;50.076;8.198;2023-04-03T07:21:09;714.45;;;172.25;;
75156;SDS011;63736;50.076;8.198;2023-04-03T07:23:35;698.37;;;168.13;;
75156;SDS011;63736;50.076;8.198;2023-04-03T07:26:00;700.53;;;167.53;;
75156;SDS011;63736;50.076;8.198;2023-04-03T07:28:26;684.97;;;162.77;;
75156;SDS011;63736;50.076;8.198;2023-04-03T07:30:52;684.43;;;163.93;;
75156;SDS011;63736;50.076;8.198;2023-04-03T07:33:20;672.13;;;161.02;;
75156;SDS011;63736;50.076;8.198;2023-04-03T07:35:47;667.63;;;160.50;;
75156;SDS011;63736;50.076;8.198;2023-04-03T07:38:12;673.50;;;161.20;;
75156;SDS011;63736;50.076;8.198;2023-04-03T07:40:38;683.30;;;162.47;;
75156;SDS011;63736;50.076;8.198;2023-04-03T07:43:04;691.50;;;164.75;;
75156;SDS011;63736;50.076;8.198;2023-04-03T07:45:30;683.65;;;163.10;;
75156;SDS011;63736;50.076;8.198;2023-04-03T07:47:55;681.40;;;162.40;;
75156;SDS011;63736;50.076;8.198;2023-04-03T07:50:21;685.13;;;162.70;;
75156;SDS011;63736;50.076;8.198;2023-04-03T07:52:47;699.88;;;167.00;;
75156;SDS011;63736;50.076;8.198;2023-04-03T07:55:12;713.43;;;168.73;;
75156;SDS011;63736;50.076;8.198;2023-04-03T07:57:38;741.83;;;176.90;;
75156;SDS011;63736;50.076;8.198;2023-04-03T08:00:04;755.27;;;179.50;;
75156;SDS011;63736;50.076;8.198;2023-04-03T08:02:29;767.97;;;182.57;;
75156;SDS011;63736;50.076;8.198;2023-04-03T08:04:56;818.07;;;193.50;;
75156;SDS011;63736;50.076;8.198;2023-04-03T08:07:22;863.90;;;203.25;;
75156;SDS011;63736;50.076;8.198;2023-04-03T08:09:48;760.53;;;176.93;;
75156;SDS011;63736;50.076;8.198;2023-04-03T08:12:14;766.75;;;178.43;;
75156;SDS011;63736;50.076;8.198;2023-04-03T08:14:39;782.33;;;181.37;;
75156;SDS011;63736;50.076;8.198;2023-04-03T08:17:05;715.43;;;165.73;;
75156;SDS011;63736;50.076;8.198;2023-04-03T08:19:34;695.35;;;160.45;;
75156;SDS011;63736;50.076;8.198;2023-04-03T08:22:00;689.97;;;159.93;;
75156;SDS011;63736;50.076;8.198;2023-04-03T08:24:27;665.05;;;154.90;;
75156;SDS011;63736;50.076;8.198;2023-04-03T08:26:53;656.63;;;154.53;;
75156;SDS011;63736;50.076;8.198;2023-04-03T08:29:18;662.97;;;154.17;;
75156;SDS011;63736;50.076;8.198;2023-04-03T08:31:44;634.17;;;148.63;;
75156;SDS011;63736;50.076;8.198;2023-04-03T08:34:10;647.90;;;151.90;;
75156;SDS011;63736;50.076;8.198;2023-04-03T08:36:36;614.17;;;144.85;;
75156;SDS011;63736;50.076;8.198;2023-04-03T08:39:02;611.00;;;144.30;;
75156;SDS011;63736;50.076;8.198;2023-04-03T08:41:34;597.90;;;141.50;;
75156;SDS011;63736;50.076;8.198;2023-04-03T08:47:02;646.83;;;152.07;;
75156;SDS011;63736;50.076;8.198;2023-04-03T08:49:48;670.03;;;159.57;;
75156;SDS011;63736;50.076;8.198;2023-04-03T08:52:23;678.33;;;160.80;;
75156;SDS011;63736;50.076;8.198;2023-04-03T08:55:03;690.92;;;164.18;;
75156;SDS011;63736;50.076;8.198;2023-04-03T08:57:41;647.80;;;155.13;;
75156;SDS011;63736;50.076;8.198;2023-04-03T09:00:19;622.00;;;148.40;;
75156;SDS011;63736;50.076;8.198;2023-04-03T09:02:48;617.90;;;147.98;;
75156;SDS011;63736;50.076;8.198;2023-04-03T09:05:16;614.42;;;147.18;;
75156;SDS011;63736;50.076;8.198;2023-04-03T09:07:45;612.15;;;146.65;;
75156;SDS011;63736;50.076;8.198;2023-04-03T09:10:19;610.63;;;146.63;;
75156;SDS011;63736;50.076;8.198;2023-04-03T09:12:58;606.33;;;145.38;;
75156;SDS011;63736;50.076;8.198;2023-04-03T09:15:28;604.15;;;146.05;;
75156;SDS011;63736;50.076;8.198;2023-04-03T09:18:28;689.20;;;166.23;;
75156;SDS011;63736;50.076;8.198;2023-04-03T09:23:31;625.83;;;150.87;;
75156;SDS011;63736;50.076;8.198;2023-04-03T09:26:36;641.15;;;156.02;;
75156;SDS011;63736;50.076;8.198;2023-04-03T09:29:05;621.45;;;151.85;;
75156;SDS011;63736;50.076;8.198;2023-04-03T09:31:36;615.60;;;150.82;;
75156;SDS011;63736;50.076;8.198;2023-04-03T09:34:13;612.28;;;149.65;;
75156;SDS011;63736;50.076;8.198;2023-04-03T09:36:47;614.33;;;149.93;;
75156;SDS011;63736;50.076;8.198;2023-04-03T09:39:16;643.67;;;157.40;;
75156;SDS011;63736;50.076;8.198;2023-04-03T09:42:02;651.72;;;161.15;;
75156;SDS011;63736;50.076;8.198;2023-04-03T09:44:32;636.47;;;155.93;;
75156;SDS011;63736;50.076;8.198;2023-04-03T09:46:59;633.80;;;154.95;;
75156;SDS011;63736;50.076;8.198;2023-04-03T09:49:25;634.30;;;155.17;;
75156;SDS011;63736;50.076;8.198;2023-04-03T09:51:51;638.72;;;157.05;;
75156;SDS011;63736;50.076;8.198;2023-04-03T09:54:36;638.03;;;155.77;;
75156;SDS011;63736;50.076;8.198;2023-04-03T09:57:09;653.57;;;161.33;;
75156;SDS011;63736;50.076;8.198;2023-04-03T09:59:37;672.50;;;167.98;;
75156;SDS011;63736;50.076;8.198;2023-04-03T10:02:22;642.95;;;158.25;;
75156;SDS011;63736;50.076;8.198;2023-04-03T10:05:00;656.42;;;163.30;;
75156;SDS011;63736;50.076;8.198;2023-04-03T10:09:59;650.38;;;161.98;;
75156;SDS011;63736;50.076;8.198;2023-04-03T10:12:47;644.95;;;161.75;;
75156;SDS011;63736;50.076;8.198;2023-04-03T10:15:15;643.70;;;160.33;;
75156;SDS011;63736;50.076;8.198;2023-04-03T10:17:48;640.88;;;159.23;;
75156;SDS011;63736;50.076;8.198;2023-04-03T10:20:40;655.08;;;164.40;;
75156;SDS011;63736;50.076;8.198;2023-04-03T10:23:18;652.83;;;164.50;;
75156;SDS011;63736;50.076;8.198;2023-04-03T10:34:48;618.70;;;155.35;;
75156;SDS011;63736;50.076;8.198;2023-04-03T10:43:09;637.80;;;162.57;;
75156;SDS011;63736;50.076;8.198;2023-04-03T10:45:55;638.03;;;163.63;;
75156;SDS011;63736;50.076;8.198;2023-04-03T10:48:36;644.47;;;165.10;;
75156;SDS011;63736;50.076;8.198;2023-04-03T10:51:20;629.35;;;160.77;;
75156;SDS011;63736;50.076;8.198;2023-04-03T10:54:08;619.70;;;156.90;;
75156;SDS011;63736;50.076;8.198;2023-04-03T10:56:52;612.70;;;155.50;;
75156;SDS011;63736;50.076;8.198;2023-04-03T10:59:31;612.83;;;155.48;;
75156;SDS011;63736;50.076;8.198;2023-04-03T11:05:01;608.13;;;154.85;;
75156;SDS011;63736;50.076;8.198;2023-04-03T11:07:40;602.88;;;152.80;;
75156;SDS011;63736;50.076;8.198;2023-04-03T11:10:13;600.33;;;151.77;;
75156;SDS011;63736;50.076;8.198;2023-04-03T11:12:46;598.13;;;151.30;;
75156;SDS011;63736;50.076;8.198;2023-04-03T11:15:26;594.08;;;150.80;;
75156;SDS011;63736;50.076;8.198;2023-04-03T11:17:59;592.22;;;149.65;;
75156;SDS011;63736;50.076;8.198;2023-04-03T11:20:29;590.13;;;149.10;;
75156;SDS011;63736;50.076;8.198;2023-04-03T11:23:00;590.13;;;150.07;;
75156;SDS011;63736;50.076;8.198;2023-04-03T11:25:29;585.83;;;148.18;;
75156;SDS011;63736;50.076;8.198;2023-04-03T11:30:32;584.22;;;148.60;;
75156;SDS011;63736;50.076;8.198;2023-04-03T11:33:21;584.67;;;149.30;;
75156;SDS011;63736;50.076;8.198;2023-04-03T11:36:08;582.07;;;148.07;;
75156;SDS011;63736;50.076;8.198;2023-04-03T11:38:37;582.33;;;147.90;;
75156;SDS011;63736;50.076;8.198;2023-04-03T11:41:08;582.50;;;147.43;;
75156;SDS011;63736;50.076;8.198;2023-04-03T11:43:43;630.85;;;161.48;;
75156;SDS011;63736;50.076;8.198;2023-04-03T11:46:22;639.85;;;165.27;;
75156;SDS011;63736;50.076;8.198;2023-04-03T11:48:49;628.63;;;160.83;;
75156;SDS011;63736;50.076;8.198;2023-04-03T11:53:53;621.33;;;158.63;;
75156;SDS011;63736;50.076;8.198;2023-04-03T12:04:16;597.20;;;152.32;;
75156;SDS011;63736;50.076;8.198;2023-04-03T12:09:28;595.27;;;151.37;;
75156;SDS011;63736;50.076;8.198;2023-04-03T12:11:57;594.20;;;151.18;;
75156;SDS011;63736;50.076;8.198;2023-04-03T12:14:26;594.65;;;151.90;;
75156;SDS011;63736;50.076;8.198;2023-04-03T12:16:53;588.42;;;150.05;;
75156;SDS011;63736;50.076;8.198;2023-04-03T12:22:09;585.30;;;149.53;;
75156;SDS011;63736;50.076;8.198;2023-04-03T12:24:37;584.15;;;149.02;;
75156;SDS011;63736;50.076;8.198;2023-04-03T12:36:05;577.83;;;147.17;;
75156;SDS011;63736;50.076;8.198;2023-04-03T12:38:39;577.33;;;147.68;;
75156;SDS011;63736;50.076;8.198;2023-04-03T12:46:52;576.88;;;148.27;;
75156;SDS011;63736;50.076;8.198;2023-04-03T12:49:29;577.17;;;147.73;;
75156;SDS011;63736;50.076;8.198;2023-04-03T12:52:18;576.05;;;147.23;;
75156;SDS011;63736;50.076;8.198;2023-04-03T12:54:51;575.30;;;147.38;;
75156;SDS011;63736;50.076;8.198;2023-04-03T12:57:20;573.90;;;146.60;;
75156;SDS011;63736;50.076;8.198;2023-04-03T12:59:50;575.65;;;147.43;;
75156;SDS011;63736;50.076;8.198;2023-04-03T13:02:17;573.00;;;146.10;;
75156;SDS011;63736;50.076;8.198;2023-04-03T13:04:46;573.45;;;146.13;;
75156;SDS011;63736;50.076;8.198;2023-04-03T13:07:25;573.07;;;145.63;;
75156;SDS011;63736;50.076;8.198;2023-04-03T13:10:00;573.97;;;146.70;;
75156;SDS011;63736;50.076;8.198;2023-04-03T13:12:48;575.08;;;146.73;;
75156;SDS011;63736;50.076;8.198;2023-04-03T13:15:17;571.15;;;145.77;;
75156;SDS011;63736;50.076;8.198;2023-04-03T13:17:47;568.63;;;144.73;;
75156;SDS011;63736;50.076;8.198;2023-04-03T13:20:18;570.50;;;145.27;;
75156;SDS011;63736;50.076;8.198;2023-04-03T13:23:04;571.60;;;145.75;;
75156;SDS011;63736;50.076;8.198;2023-04-03T13:25:34;568.95;;;145.30;;
75156;SDS011;63736;50.076;8.198;2023-04-03T13:28:03;569.03;;;145.23;;
75156;SDS011;63736;50.076;8.198;2023-04-03T13:30:32;568.33;;;144.68;;
75156;SDS011;63736;50.076;8.198;2023-04-03T13:33:02;568.67;;;144.60;;
75156;SDS011;63736;50.076;8.198;2023-04-03T13:35:36;568.35;;;144.75;;
75156;SDS011;63736;50.076;8.198;2023-04-03T13:38:21;566.63;;;144.45;;
75156;SDS011;63736;50.076;8.198;2023-04-03T13:40:50;566.75;;;144.32;;
75156;SDS011;63736;50.076;8.198;2023-04-03T13:43:20;568.47;;;145.38;;
75156;SDS011;63736;50.076;8.198;2023-04-03T13:46:05;568.20;;;145.23;;
75156;SDS011;63736;50.076;8.198;2023-04-03T13:48:51;566.53;;;144.40;;
75156;SDS011;63736;50.076;8.198;2023-04-03T13:51:28;567.50;;;144.80;;
75156;SDS011;63736;50.076;8.198;2023-04-03T13:53:56;566.90;;;145.05;;
75156;SDS011;63736;50.076;8.198;2023-04-03T13:56:30;565.72;;;144.38;;
75156;SDS011;63736;50.076;8.198;2023-04-03T13:59:00;564.03;;;143.77;;
75156;SDS011;63736;50.076;8.198;2023-04-03T14:04:20;566.35;;;144.20;;
75156;SDS011;63736;50.076;8.198;2023-04-03T14:06:48;563.85;;;144.30;;
75156;SDS011;63736;50.076;8.198;2023-04-03T14:09:15;563.92;;;144.05;;
75156;SDS011;63736;50.076;8.198;2023-04-03T14:11:41;564.43;;;144.33;;
75156;SDS011;63736;50.076;8.198;2023-04-03T14:14:15;563.35;;;143.48;;
75156;SDS011;63736;50.076;8.198;2023-04-03T14:16:44;563.83;;;144.38;;
75156;SDS011;63736;50.076;8.198;2023-04-03T14:19:17;561.97;;;143.00;;
75156;SDS011;63736;50.076;8.198;2023-04-03T14:21:45;563.00;;;144.77;;
75156;SDS011;63736;50.076;8.198;2023-04-03T14:24:12;564.58;;;144.40;;
75156;SDS011;63736;50.076;8.198;2023-04-03T14:26:37;562.57;;;143.87;;
75156;SDS011;63736;50.076;8.198;2023-04-03T14:29:02;563.45;;;144.18;;
75156;SDS011;63736;50.076;8.198;2023-04-03T14:31:28;562.23;;;144.10;;
75156;SDS011;63736;50.076;8.198;2023-04-03T14:33:53;559.20;;;142.87;;
75156;SDS011;63736;50.076;8.198;2023-04-03T14:36:23;561.80;;;143.80;;
75156;SDS011;63736;50.076;8.198;2023-04-03T14:38:50;561.38;;;143.55;;
75156;SDS011;63736;50.076;8.198;2023-04-03T14:41:17;560.13;;;143.20;;
75156;SDS011;63736;50.076;8.198;2023-04-03T14:43:44;561.95;;;143.77;;
75156;SDS011;63736;50.076;8.198;2023-04-03T14:46:15;563.63;;;144.55;;
75156;SDS011;63736;50.076;8.198;2023-04-03T14:48:42;560.80;;;143.02;;
75156;SDS011;63736;50.076;8.198;2023-04-03T14:51:11;560.25;;;143.65;;
75156;SDS011;63736;50.076;8.198;2023-04-03T14:53:38;559.27;;;143.07;;
75156;SDS011;63736;50.076;8.198;2023-04-03T14:56:08;559.90;;;143.05;;
75156;SDS011;63736;50.076;8.198;2023-04-03T14:58:37;563.53;;;145.10;;
75156;SDS011;63736;50.076;8.198;2023-04-03T15:01:02;558.07;;;142.33;;
75156;SDS011;63736;50.076;8.198;2023-04-03T15:03:27;562.63;;;144.90;;
75156;SDS011;63736;50.076;8.198;2023-04-03T15:05:53;560.88;;;143.50;;
75156;SDS011;63736;50.076;8.198;2023-04-03T15:08:20;560.90;;;144.13;;
75156;SDS011;63736;50.076;8.198;2023-04-03T15:10:48;558.70;;;143.18;;
75156;SDS011;63736;50.076;8.198;2023-04-03T15:13:15;559.43;;;143.20;;
75156;SDS011;63736;50.076;8.198;2023-04-03T15:15:40;559.28;;;142.93;;
75156;SDS011;63736;50.076;8.198;2023-04-03T15:18:06;559.97;;;143.07;;